東京国際空港の過去48時間の天気

東京国際空港 (Tokyo/Intl)

現在時刻: 6/25 22:15 JST (6/25 13:15 UTC) 以下の時間は現地時間です。

過去48時間のMETAR気象情報
時間 風向 風速(m/s) 視程 気温(℃) 湿度(%) 気圧(hPa) 天気現象
25 22:00 南東 4 10km以上 23 89 1014
25 21:30 南東 5 10km以上 24 83 1014
25 21:00 南東 5 10km以上 24 78 1014
25 20:30 南南東 6 10km以上 25 78 1013
25 20:00 6 10km以上 25 78 1013
25 19:30 6 10km以上 26 70 1012
25 19:00 6 10km以上 28 55 1012
25 18:30 南南西 6 10km以上 28 58 1011
25 18:00 5 10km以上 28 58 1011
25 17:30 6 10km以上 29 55 1011
25 17:00 6 10km以上 29 62 1010
25 16:30 6 10km以上 30 59 1010
25 16:00 南南西 6 10km以上 31 52 1010
25 15:30 6 10km以上 31 52 1010
25 15:00 6 10km以上 31 55 1010
25 14:30 6 10km以上 31 59 1010
25 14:00 5 10km以上 32 49 1010
25 13:30 4 10km以上 32 46 1010
25 13:00 南南東 4 10km以上 31 46 1010
25 12:30 南南東 3 10km以上 30 52 1010
25 12:00 南東 4 10km以上 30 62 1011
25 11:30 南東 4 10km以上 28 70 1011
25 11:00 南東 4 10km以上 28 66 1011
25 10:30 南東 4 10km以上 27 70 1011
25 10:00 南東 4 10km以上 27 74 1011
25 09:30 南東 3 10km以上 26 74 1011
25 09:00 南東 3 10km以上 26 79 1011
25 08:30 南東 2 10km以上 25 78 1011
25 08:00 東南東 2 10km以上 25 83 1010
25 07:30 東南東 2 10km以上 24 89 1010
25 07:00 不定 1 10km以上 23 89 1010
25 06:30 不定 1 10km以上 24 83 1009
25 06:00 西 2 10km以上 23 83 1009
25 05:30 不定 1 10km以上 22 88 1009
25 05:00 2 10km以上 21 94 1008
25 04:30 南南西 2 10km以上 22 88 1008
25 04:00 不定 1 10km以上 22 88 1008
25 03:30 北西 1 10km以上 22 88 1007
25 03:00 西 2 10km以上 22 88 1007
25 02:30 不定 1 10km以上 22 94 1007
25 02:00 3 10km以上 22 94 1007
25 01:30 南西 3 10km以上 23 83 1007
25 01:00 南西 4 10km以上 23 83 1007
25 00:30 南南西 4 10km以上 23 83 1007
25 00:00 南南西 3 10km以上 23 83 1007
24 23:30 南南西 2 10km以上 23 83 1007
24 23:00 南西 3 10km以上 23 83 1007
24 22:30 南南西 4 10km以上 23 83 1007
24 22:00 南南西 5 10km以上 23 83 1007
24 21:30 南南西 5 10km以上 23 83 1007
24 21:00 南南西 4 10km以上 23 83 1006
24 20:30 南南西 5 10km以上 23 83 1006
24 20:00 5 10km以上 24 69 1006
24 19:30 南南西 5 10km以上 24 69 1005
24 19:00 5 10km以上 24 69 1005
24 18:30 5 10km以上 25 74 1005
24 18:00 南南西 4 10km以上 25 74 1004
24 17:30 5 10km以上 26 70 1004
24 17:00 4 10km以上 26 70 1004
24 16:30 南東 3 10km以上 25 74 1003
24 16:00 南東 4 10km以上 24 78 1003
24 15:30 南東 4 10km以上 25 74 1004
24 15:00 東南東 5 9000m 24 78 1004
24 14:30 東南東 4 9000m 24 83 1004
24 14:00 東南東 4 9000m 24 83 1004
24 13:30 3 8000m 24 78 1004
24 13:00 北北東 2 8000m 24 78 1003
24 12:30 北北東 2 7000m 24 78 1004
24 12:00 北北東 2 7000m 22 83 1004
24 11:30 北北西 2 5000m 22 88 1005 弱い雨 もや
24 11:00 3 5000m 22 88 1005 弱い雨 もや
24 10:45 北北西 4 4000m 21 94 1005 弱い雨 もや
24 10:39 北北西 4 5000m 21 88 1005 弱い雨 もや
24 10:30 北北西 4 7000m 21 94 1005 弱い雨
24 10:00 北北西 4 7000m 21 88 1005 弱い雨
24 09:30 北北西 4 7000m 21 88 1005 弱い雨
24 09:00 3 7000m 21 88 1005 弱い雨
24 08:30 西北西 3 10km以上 21 88 1005 弱いしゅう雨
24 08:23 西北西 2 10km以上 21 88 1005 弱いしゅう雨
24 08:00 2 10km以上 21 88 1005
24 07:30 西北西 2 10km以上 20 94 1005 弱い雨
24 07:00 西 3 10km以上 20 88 1005 弱い雨
24 06:30 西 4 10km以上 20 88 1005 弱い雨
24 06:12 西北西 4 10km以上 20 88 1005 弱い雨
24 06:00 西 4 10km以上 20 88 1005 弱い雨
24 05:30 西南西 5 10km以上 20 94 1005 弱いしゅう雨
24 05:00 西南西 4 10km以上 21 88 1004
24 04:30 南南西 5 10km以上 21 88 1004
RJTT 251300Z 14008KT 9999 FEW030 23/21 Q1014 BECMG 08010KT RMK 1CU030 A2996
RJTT 251230Z 14009KT 9999 FEW030 24/21 Q1014 BECMG 08010KT
RJTT 251200Z 14009KT 9999 FEW030 24/20 Q1014 BECMG 08010KT RMK 1CU030 A2995
RJTT 251130Z 16012KT 9999 FEW030 25/21 Q1013 BECMG 10010KT
RJTT 251100Z 17011KT 9999 FEW030 25/21 Q1013 BECMG 10010KT
RJTT 251030Z 19012KT 9999 FEW030 26/20 Q1012 NOSIG RMK 1CU030 A2990
RJTT 251000Z 18011KT 9999 FEW030 28/18 Q1012 NOSIG RMK 1CU030 A2989
RJTT 250930Z 20012KT 9999 FEW030 28/19 Q1011 NOSIG RMK 1CU030 A2988
RJTT 250900Z 18010KT 9999 FEW030 28/19 Q1011 NOSIG RMK 1CU030 A2987
RJTT 250830Z 18012KT 9999 FEW030 29/19 Q1011 NOSIG RMK 1CU030 A2986
RJTT 250800Z 18012KT 9999 FEW030 29/21 Q1010 NOSIG RMK 1CU030 A2985
RJTT 250730Z 19012KT 9999 FEW030 30/21 Q1010 NOSIG RMK 1CU030 A2985
RJTT 250700Z 20011KT 170V230 9999 FEW030 31/20 Q1010 NOSIG RMK 1CU030 A2984
RJTT 250630Z 19011KT 160V230 9999 FEW030 31/20 Q1010 NOSIG RMK 1CU030 A2984 MOD TURB OBS AT 0620Z 15NM S BACON BTN 9000FT AND 7000FT IN DES BY B763
RJTT 250600Z 19011KT 9999 FEW030 31/21 Q1010 NOSIG RMK 1CU030 A2985
RJTT 250530Z 19012KT 9999 FEW030 31/22 Q1010 NOSIG RMK 1CU030 A2984
RJTT 250500Z 19010KT 150V220 9999 FEW030 32/20 Q1010 NOSIG RMK 1CU030 A2985
RJTT 250430Z 18008KT 9999 FEW030 32/19 Q1010 NOSIG RMK 1CU030 A2985
RJTT 250400Z 15007KT 120V200 9999 FEW030 31/18 Q1010 NOSIG RMK 1CU030 A2985
RJTT 250330Z 15006KT 100V190 9999 FEW030 30/19 Q1010 NOSIG RMK 1CU030 A2985
RJTT 250300Z 13007KT 9999 FEW030 30/22 Q1011 NOSIG RMK 1CU030 A2985
RJTT 250230Z 13008KT CAVOK 28/22 Q1011 NOSIG RMK A2986
RJTT 250200Z 14008KT CAVOK 28/21 Q1011 NOSIG RMK A2986
RJTT 250130Z 13007KT CAVOK 27/21 Q1011 NOSIG RMK A2986
RJTT 250100Z 13007KT CAVOK 27/22 Q1011 NOSIG RMK A2987
RJTT 250030Z 13006KT CAVOK 26/21 Q1011 NOSIG RMK A2986
RJTT 250000Z 13006KT CAVOK 26/22 Q1011 NOSIG RMK A2986
RJTT 242330Z 13004KT CAVOK 25/21 Q1011 NOSIG RMK A2985
RJTT 242300Z 12004KT CAVOK 25/22 Q1010 NOSIG RMK A2985
RJTT 242230Z 11003KT 9999 FEW010 SCT/// 24/22 Q1010 NOSIG
RJTT 242200Z VRB02KT 9999 FEW010 BKN/// 23/21 Q1010 NOSIG RMK 1CU010 A2984
RJTT 242130Z VRB02KT 9999 FEW010 BKN/// 24/21 Q1009 NOSIG
RJTT 242100Z 27003KT 190V290 9999 FEW010 BKN/// 23/20 Q1009 NOSIG RMK 1ST010 A2981
RJTT 242030Z VRB02KT 9999 FEW010 BKN/// 22/20 Q1009 NOSIG
RJTT 242000Z 18003KT 9999 FEW010 BKN/// 21/20 Q1008 NOSIG
RJTT 241930Z 20003KT 9999 FEW020 BKN/// 22/20 Q1008 NOSIG
RJTT 241900Z VRB01KT 9999 FEW020 BKN/// 22/20 Q1008 NOSIG RMK 1SC020 A2977
RJTT 241830Z 31002KT 9999 FEW030 BKN/// 22/20 Q1007 NOSIG
RJTT 241800Z 27003KT 9999 FEW030 BKN/// 22/20 Q1007 NOSIG RMK 1SC030 A2975
RJTT 241730Z VRB02KT 9999 FEW030 BKN/// 22/21 Q1007 NOSIG
RJTT 241700Z 18005KT 9999 FEW030 BKN/// 22/21 Q1007 NOSIG RMK 1SC030 A2975
RJTT 241630Z 23005KT 180V250 9999 FEW030 BKN/// 23/20 Q1007 NOSIG
RJTT 241600Z 22007KT 9999 FEW030 BKN/// 23/20 Q1007 NOSIG RMK 1SC030 A2975
RJTT 241530Z 21007KT 9999 FEW030 BKN/// 23/20 Q1007 NOSIG
RJTT 241500Z 21005KT 160V230 9999 FEW030 BKN/// 23/20 Q1007 NOSIG RMK 1SC030 A2975
RJTT 241430Z 21003KT 150V250 9999 FEW030 BKN/// 23/20 Q1007 BECMG 26005KT
RJTT 241400Z 22006KT 9999 FEW030 BKN/// 23/20 Q1007 NOSIG RMK 1SC030 A2974
RJTT 241330Z 21008KT 9999 FEW030 BKN/// 23/20 Q1007 NOSIG
RJTT 241300Z 21010KT 170V230 9999 FEW030 BKN/// 23/20 Q1007 NOSIG RMK 1SC030 A2974
RJTT 241230Z 20009KT 9999 FEW030 BKN/// 23/20 Q1007 NOSIG RMK 1SC030 A2974
RJTT 241200Z 20008KT 9999 FEW030 BKN/// 23/20 Q1006 NOSIG RMK 1SC030 A2972
RJTT 241130Z 20009KT 9999 FEW040 BKN/// 23/20 Q1006 NOSIG
RJTT 241100Z 19009KT 9999 FEW040 BKN/// 24/18 Q1006 NOSIG
RJTT 241030Z 20010KT 160V230 9999 FEW020 BKN/// 24/18 Q1005 NOSIG
RJTT 241000Z 19009KT 9999 FEW020 BKN/// 24/18 Q1005 NOSIG RMK 1CU020 A2969
RJTT 240930Z 19009KT 9999 FEW020 BKN/// 25/20 Q1005 NOSIG
RJTT 240900Z 20008KT 9999 FEW020 BKN/// 25/20 Q1004 NOSIG RMK 1CU020 A2967
RJTT 240830Z 19009KT 150V220 CAVOK 26/20 Q1004 NOSIG RMK A2967
RJTT 240800Z 17007KT 140V210 9999 FEW020 BKN/// 26/20 Q1004 NOSIG RMK 1CU020 A2965
RJTT 240730Z 13005KT 9999 FEW015 BKN/// 25/20 Q1003 BECMG 20010KT
RJTT 240700Z 13007KT 9999 FEW015 BKN/// 24/20 Q1003 BECMG 20010KT RMK 1CU015 A2964
RJTT 240630Z 14008KT 9999 FEW015 BKN/// 25/20 Q1004 NOSIG RMK 1CU015 A2965
RJTT 240600Z 12009KT 9000 FEW015 BKN/// 24/20 Q1004 BECMG 18010KT RMK 1CU015 A2965
RJTT 240530Z 12008KT 9000 FEW015 BKN/// 24/21 Q1004 NOSIG
RJTT 240500Z 12007KT 9000 FEW015 BKN/// 24/21 Q1004 NOSIG
RJTT 240430Z 09005KT 8000 FEW015 BKN/// 24/20 Q1004 NOSIG
RJTT 240400Z 02004KT 8000 FEW015 BKN/// 24/20 Q1003 BECMG 12006KT
RJTT 240330Z 02004KT 7000 FEW015 BKN/// 24/20 Q1004 BECMG 12006KT
RJTT 240300Z 02003KT 7000 FEW010 SCT015 BKN110 22/19 Q1004 NOSIG RMK 1CU010 3CU015 6AC110 A2967
RJTT 240230Z 34003KT 280V010 5000 -RA BR FEW008 BKN014 BKN090 22/20 Q1005 BECMG FEW008 BKN015
RJTT 240200Z 35006KT 5000 -RA BR FEW008 BKN012 BKN070 22/20 Q1005 NOSIG RMK 1ST008 6CU012 7AC070 A2969
RJTT 240145Z 34007KT 4000 -RA BR FEW008 SCT015 BKN070 21/20 Q1005 RMK 1ST008 3CU015 7AC070 A2969
RJTT 240139Z 34008KT 5000 -RA BR FEW008 BKN015 BKN070 21/19 Q1005 RMK 1ST008 5CU015 7AC070 A2969
RJTT 240130Z 34008KT 7000 R34L/P2000N R22/P2000N R34R/P2000N R23/2000N -RA FEW008 BKN015 BKN070 21/20 Q1005 NOSIG
RJTT 240100Z 34007KT 7000 -RA FEW008 BKN015 BKN090 21/19 Q1005 NOSIG RMK 1ST008 6CU015 7AC090 A2969
RJTT 240030Z 33007KT 7000 -RA FEW008 SCT015 BKN090 21/19 Q1005 NOSIG RMK 1ST008 4CU015 7AC090 A2969
RJTT 240000Z 35006KT 7000 -RA FEW008 SCT015 BKN090 21/19 Q1005 NOSIG RMK 1ST008 3CU015 7AC090 A2968
RJTT 232330Z 30005KT 9999 -SHRA FEW008 BKN012 BKN090 21/19 Q1005 NOSIG RMK 1ST008 5CU012 7AC090 A2969
RJTT 232323Z 30004KT 9999 -SHRA FEW008 BKN012 BKN090 21/19 Q1005 RMK 1ST008 5CU012 7AC090 A2970
RJTT 232300Z 35003KT 300V020 9999 FEW008 BKN100 21/19 Q1005 NOSIG RMK 1ST008 7AC100 A2968
RJTT 232230Z 30004KT 9999 -RA FEW008 OVC110 20/19 Q1005 NOSIG RMK 1ST008 8AS110 A2969
RJTT 232200Z 28006KT 9999 -RA FEW008 OVC120 20/18 Q1005 NOSIG RMK 1ST008 8AS120 A2969
RJTT 232130Z 28007KT 9999 -RA FEW008 OVC140 20/18 Q1005 NOSIG RMK 1ST008 8AS140 A2968
RJTT 232112Z 29007KT 9999 -RA FEW008 SCT012 OVC140 20/18 Q1005 RMK 1ST008 4SC012 8AS140 A2969
RJTT 232100Z 28007KT 9999 -RA FEW008 BKN012 BKN110 20/18 Q1005 NOSIG RMK 1ST008 5SC012 7AC110 A2969
RJTT 232030Z 25009KT 9999 -SHRA FEW008 SCT012 BKN130 20/19 Q1005 TEMPO FEW008 BKN012 RMK 1ST008 3CU012 6AC130 A2969 P/RR
RJTT 232000Z 25008KT 9999 FEW008 SCT012 BKN140 21/19 Q1004 NOSIG RMK 1ST008 3CU012 7AC140 A2966
RJTT 231930Z 20009KT 9999 FEW008 BKN012 BKN140 21/19 Q1004 NOSIG RMK 1ST008 5CU012 7AC140 A2967